Time;durP1;ratioP1;P1;durP2;ratioP2;P2;SDS_P1;SDS_P2;PMS_P1;PMS_P2;Temp;Humidity;BMP_temperature;BMP_pressure;BME280_temperature;BME280_humidity;BME280_pressure;Samples;Min_cycle;Max_cycle;Signal;HPM_P1;HPM_P2
2023/05/27 00:02:33;;;;;;;18.30;5.75;;;12.50;1.00;;;;;;6182083;23;20056;-85
2023/05/27 00:05:21;;;;;;;10.80;5.07;;;12.50;1.00;;;;;;6183384;23;20060;-83
2023/05/27 00:08:08;;;;;;;14.85;5.65;;;12.50;76.00;;;;;;6164304;23;20029;-84
2023/05/27 00:10:56;;;;;;;17.25;5.22;;;12.60;65.40;;;;;;6162432;23;20033;-84
2023/05/27 00:13:43;;;;;;;14.93;6.13;;;12.70;61.50;;;;;;6183282;23;20029;-84
2023/05/27 00:16:31;;;;;;;14.90;4.80;;;12.80;99.90;;;;;;6184593;23;20036;-83
2023/05/27 00:19:23;;;;;;;17.85;6.00;;;12.80;99.90;;;;;;6164073;23;20336;-85
2023/05/27 00:22:11;;;;;;;13.73;5.13;;;12.90;99.90;;;;;;6161665;23;20036;-84
2023/05/27 00:24:58;;;;;;;16.52;5.60;;;12.90;99.90;;;;;;6183117;23;20028;-84
2023/05/27 00:27:51;;;;;;;13.93;5.57;;;12.90;99.90;;;;;;6183361;23;20103;-84
2023/05/27 00:30:38;;;;;;;11.60;4.95;;;12.70;99.90;;;;;;6184912;23;20040;-85
2023/05/27 00:33:27;;;;;;;16.88;5.03;;;12.60;99.90;;;;;;6181903;23;20036;-84
2023/05/27 00:36:15;;;;;;;19.85;5.55;;;12.60;99.90;;;;;;6184679;23;20087;-84
2023/05/27 00:39:03;;;;;;;11.95;5.20;;;12.60;99.90;;;;;;6184094;23;20274;-85
2023/05/27 00:41:50;;;;;;;19.13;5.10;;;12.50;99.90;;;;;;6183508;23;20025;-85
2023/05/27 00:44:38;;;;;;;12.85;5.53;;;12.40;99.90;;;;;;6183238;23;20029;-84
2023/05/27 00:47:29;;;;;;;15.38;5.75;;;12.30;99.90;;;;;;6185686;23;20056;-84
2023/05/27 00:50:18;;;;;;;17.05;5.30;;;12.20;99.90;;;;;;6183092;23;20110;-84
2023/05/27 00:53:05;;;;;;;16.75;5.40;;;12.20;99.90;;;;;;6182128;23;20025;-85
2023/05/27 00:55:57;;;;;;;16.25;5.13;;;12.20;99.90;;;;;;6163535;23;20312;-84
2023/05/27 00:58:45;;;;;;;13.02;5.13;;;12.20;99.90;;;;;;6182330;23;20036;-84
2023/05/27 01:01:36;;;;;;;16.45;5.35;;;12.10;99.90;;;;;;6162116;23;20029;-85
2023/05/27 01:04:26;;;;;;;17.85;5.40;;;12.00;99.90;;;;;;6160344;23;20029;-83
2023/05/27 01:07:58;;;;;;;24.98;5.88;;;12.10;99.90;;;;;;6183607;23;20025;-84
2023/05/27 01:10:54;;;;;;;17.48;5.68;;;11.90;99.90;;;;;;6163419;23;20118;-84
2023/05/27 01:13:49;;;;;;;12.45;5.25;;;11.90;99.90;;;;;;6181574;23;20032;-84
2023/05/27 01:16:39;;;;;;;17.98;5.15;;;11.80;99.90;;;;;;6181831;23;20032;-85
2023/05/27 01:19:34;;;;;;;17.27;5.38;;;11.80;99.90;;;;;;6161988;23;20039;-83
2023/05/27 01:22:32;;;;;;;17.95;5.15;;;11.80;99.90;;;;;;6162692;23;20432;-84
2023/05/27 01:25:19;;;;;;;16.88;5.43;;;11.70;99.90;;;;;;6180690;23;20032;-86
2023/05/27 01:28:06;;;;;;;20.30;6.45;;;11.70;99.90;;;;;;6180942;23;20052;-86
2023/05/27 01:31:05;;;;;;;16.45;4.97;;;11.70;99.90;;;;;;6182318;23;20313;-83
2023/05/27 01:34:11;;;;;;;13.90;4.80;;;11.70;99.90;;;;;;6182778;23;20088;-84
2023/05/27 01:37:04;;;;;;;14.57;5.28;;;11.60;99.90;;;;;;6182386;23;20099;-84
2023/05/27 01:39:52;;;;;;;17.10;4.82;;;11.40;99.90;;;;;;6161980;23;20028;-84
2023/05/27 01:42:44;;;;;;;19.27;6.32;;;11.30;99.90;;;;;;6182970;23;20025;-84
2023/05/27 01:45:38;;;;;;;20.13;5.43;;;11.10;99.90;;;;;;6168630;23;20029;-87
2023/05/27 01:48:27;;;;;;;19.00;5.55;;;11.10;99.90;;;;;;6161934;23;20187;-84
2023/05/27 01:51:16;;;;;;;18.02;5.10;;;11.10;99.90;;;;;;6182930;23;20017;-86
2023/05/27 01:54:04;;;;;;;15.25;5.53;;;11.20;99.90;;;;;;6183658;23;20084;-87
2023/05/27 01:56:57;;;;;;;22.92;5.78;;;11.20;99.90;;;;;;6184550;23;20040;-86
2023/05/27 01:59:47;;;;;;;17.73;5.10;;;11.20;99.90;;;;;;6181513;23;20028;-86
2023/05/27 02:02:35;;;;;;;18.48;6.43;;;11.20;99.90;;;;;;6182081;23;20056;-87
2023/05/27 02:05:23;;;;;;;23.63;6.07;;;11.20;99.90;;;;;;6163425;23;20039;-85
2023/05/27 02:08:11;;;;;;;16.30;5.30;;;11.30;99.90;;;;;;6185003;23;20025;-85
2023/05/27 02:10:58;;;;;;;12.00;4.78;;;11.30;99.90;;;;;;6186086;23;20649;-87
2023/05/27 02:13:45;;;;;;;20.30;5.57;;;11.30;99.90;;;;;;6184581;23;20345;-86
2023/05/27 02:16:33;;;;;;;16.92;5.63;;;11.30;99.90;;;;;;6184681;23;20021;-85
2023/05/27 02:19:21;;;;;;;16.30;5.15;;;11.30;99.90;;;;;;6184847;23;20739;-86
2023/05/27 02:22:13;;;;;;;18.15;5.85;;;11.20;99.90;;;;;;6183893;23;20459;-86
2023/05/27 02:25:03;;;;;;;27.70;5.30;;;11.10;99.90;;;;;;6186111;23;20033;-86
2023/05/27 02:27:55;;;;;;;25.02;5.50;;;11.00;99.90;;;;;;6164953;23;20522;-85
2023/05/27 02:30:42;;;;;;;21.27;6.20;;;11.00;99.90;;;;;;6185408;23;20025;-85
2023/05/27 02:33:32;;;;;;;16.80;5.45;;;10.90;99.90;;;;;;6185806;23;20029;-87
2023/05/27 02:36:21;;;;;;;17.38;5.53;;;10.90;99.90;;;;;;6184883;23;20025;-86
2023/05/27 02:39:10;;;;;;;17.15;5.40;;;10.80;99.90;;;;;;6186621;23;20043;-86
2023/05/27 02:41:58;;;;;;;20.88;5.72;;;10.70;99.90;;;;;;6186128;23;20409;-86
2023/05/27 02:44:46;;;;;;;15.05;5.22;;;10.70;99.90;;;;;;6163202;23;20088;-87
2023/05/27 02:47:37;;;;;;;17.45;5.72;;;10.70;99.90;;;;;;6165538;23;20439;-86
2023/05/27 02:50:24;;;;;;;27.33;5.78;;;10.60;99.90;;;;;;6188116;23;20429;-85
2023/05/27 02:53:13;;;;;;;21.52;5.40;;;10.60;99.90;;;;;;6185787;23;20028;-86
2023/05/27 02:56:00;;;;;;;16.67;5.32;;;10.60;99.90;;;;;;6185342;23;20035;-86
2023/05/27 02:58:50;;;;;;;19.17;6.35;;;10.50;99.90;;;;;;6187801;23;20025;-87
2023/05/27 03:01:38;;;;;;;20.00;5.55;;;10.40;99.90;;;;;;6165349;23;20338;-85
2023/05/27 03:04:30;;;;;;;20.45;5.70;;;10.40;99.90;;;;;;6165351;23;20143;-86
2023/05/27 03:07:20;;;;;;;23.38;6.13;;;10.40;99.90;;;;;;6184784;23;20025;-86
2023/05/27 03:10:08;;;;;;;18.98;5.85;;;10.40;99.90;;;;;;6185879;23;20021;-84
2023/05/27 03:12:55;;;;;;;21.70;5.07;;;10.30;99.90;;;;;;6162125;23;20089;-84
2023/05/27 03:15:47;;;;;;;21.73;6.45;;;10.40;99.90;;;;;;6188353;23;20021;-86
2023/05/27 03:18:34;;;;;;;20.47;5.53;;;10.40;99.90;;;;;;6185581;23;20025;-84
2023/05/27 03:21:24;;;;;;;20.75;5.05;;;10.30;99.90;;;;;;6186285;23;20039;-85
2023/05/27 03:24:13;;;;;;;22.80;6.10;;;10.30;99.90;;;;;;6164108;23;20467;-86
2023/05/27 03:27:03;;;;;;;30.65;6.40;;;10.40;99.90;;;;;;6185341;23;20021;-84
2023/05/27 03:29:51;;;;;;;16.35;5.75;;;10.40;99.90;;;;;;6183860;23;20318;-85
2023/05/27 03:32:41;;;;;;;23.88;5.72;;;10.40;99.90;;;;;;6184300;23;20333;-85
2023/05/27 03:35:28;;;;;;;19.33;5.22;;;10.30;99.90;;;;;;6162332;23;20037;-86
2023/05/27 03:38:15;;;;;;;14.77;4.82;;;10.20;99.90;;;;;;6184510;23;20100;-86
2023/05/27 03:41:04;;;;;;;21.98;5.90;;;10.20;99.90;;;;;;6185885;23;20025;-85
2023/05/27 03:43:57;;;;;;;15.47;4.97;;;10.10;1.00;;;;;;6184473;23;20107;-86
2023/05/27 03:46:44;;;;;;;19.52;5.78;;;10.00;1.00;;;;;;6184938;23;20025;-85
2023/05/27 03:49:31;;;;;;;20.33;5.95;;;9.90;1.00;;;;;;6184247;23;20033;-85
2023/05/27 03:52:19;;;;;;;22.42;6.40;;;9.80;1.00;;;;;;6184177;23;20036;-86
2023/05/27 03:55:07;;;;;;;25.35;5.68;;;9.80;1.00;;;;;;6184592;23;20079;-86
2023/05/27 03:57:54;;;;;;;18.45;6.47;;;9.80;1.00;;;;;;6185016;23;20039;-86
2023/05/27 04:01:12;;;;;;;25.05;6.35;;;9.70;1.00;;;;;;6183412;23;20405;-85
2023/05/27 04:04:02;;;;;;;19.77;6.22;;;9.60;1.00;;;;;;6185282;23;20029;-86
2023/05/27 04:06:50;;;;;;;22.48;5.82;;;9.60;1.00;;;;;;6162725;23;20105;-85
2023/05/27 04:09:40;;;;;;;18.13;5.95;;;9.70;1.00;;;;;;6164613;23;20021;-86
2023/05/27 04:12:27;;;;;;;22.55;6.28;;;9.70;1.00;;;;;;6161911;23;20108;-86
2023/05/27 04:15:20;;;;;;;23.50;5.78;;;9.70;1.00;;;;;;6185426;23;20047;-85
2023/05/27 04:18:09;;;;;;;;;;;9.70;1.90;;;;;;6163772;23;20025;-85
2023/05/27 04:20:58;;;;;;;15.32;6.10;;;9.70;4.00;;;;;;6184562;23;19944;-86
2023/05/27 04:23:45;;;;;;;24.15;5.88;;;9.80;8.80;;;;;;6182373;23;20100;-85
2023/05/27 04:26:35;;;;;;;20.75;6.18;;;9.90;8.10;;;;;;6164523;23;20033;-86
2023/05/27 04:29:38;;;;;;;28.52;6.00;;;10.00;1.00;;;;;;6164080;23;20037;-85
2023/05/27 04:32:27;;;;;;;22.10;6.35;;;10.10;1.00;;;;;;6164515;23;20052;-85
2023/05/27 04:35:14;;;;;;;18.17;6.25;;;10.20;1.00;;;;;;6183276;23;20104;-85
2023/05/27 04:38:02;;;;;;;19.10;6.57;;;10.20;1.00;;;;;;6182034;23;20025;-85
2023/05/27 04:40:53;;;;;;;21.35;6.13;;;10.20;1.00;;;;;;6183548;23;20029;-86
2023/05/27 04:43:44;;;;;;;18.40;6.32;;;10.30;1.00;;;;;;6184565;23;20029;-86
2023/05/27 04:46:31;;;;;;;19.30;5.10;;;10.40;1.00;;;;;;6184848;23;20031;-87
2023/05/27 04:49:19;;;;;;;23.60;6.30;;;10.40;1.00;;;;;;6184738;23;20419;-87
2023/05/27 04:52:06;;;;;;;19.27;6.35;;;10.50;1.00;;;;;;6184292;23;20035;-87
2023/05/27 04:54:56;;;;;;;25.38;6.35;;;10.60;1.00;;;;;;6187024;23;20017;-86
2023/05/27 04:57:43;;;;;;;20.88;6.07;;;10.80;1.00;;;;;;6186224;23;20021;-88
2023/05/27 05:00:49;;;;;;;20.08;6.07;;;10.80;1.00;;;;;;6169320;23;20045;-86
2023/05/27 05:03:39;;;;;;;20.30;5.45;;;10.90;1.00;;;;;;6198882;23;20080;-88
2023/05/27 05:06:27;;;;;;;19.10;5.55;;;11.00;1.00;;;;;;6174954;23;20043;-88
2023/05/27 05:09:14;;;;;;;18.88;5.93;;;11.10;1.00;;;;;;6192223;23;20100;-88
2023/05/27 05:12:04;;;;;;;15.50;5.95;;;11.20;1.00;;;;;;6169974;23;20031;-89
2023/05/27 05:14:54;;;;;;;18.27;5.22;;;11.30;1.00;;;;;;6186672;23;20127;-87
2023/05/27 05:17:41;;;;;;;27.90;5.93;;;11.40;1.00;;;;;;6184525;23;20025;-87
2023/05/27 05:20:29;;;;;;;25.02;6.68;;;11.50;1.00;;;;;;6188122;23;20069;-87
2023/05/27 05:23:17;;;;;;;17.50;5.18;;;11.60;1.00;;;;;;6185564;23;20025;-88
2023/05/27 05:26:06;;;;;;;17.67;6.28;;;11.60;1.00;;;;;;6184986;23;20039;-87
2023/05/27 05:28:56;;;;;;;19.40;5.65;;;11.70;99.90;;;;;;6162532;23;20329;-84
2023/05/27 05:31:44;;;;;;;16.85;5.65;;;11.80;99.90;;;;;;6181925;23;20037;-85
2023/05/27 05:34:32;;;;;;;22.75;5.65;;;11.90;99.90;;;;;;6182667;23;20031;-86
2023/05/27 05:37:19;;;;;;;29.48;6.13;;;12.00;99.90;;;;;;6163074;23;20475;-85
2023/05/27 05:40:07;;;;;;;21.83;6.28;;;12.00;99.90;;;;;;6182656;23;20377;-85
2023/05/27 05:42:57;;;;;;;20.90;5.40;;;12.10;99.90;;;;;;6183880;23;20033;-86
2023/05/27 05:45:44;;;;;;;22.98;6.10;;;12.30;99.90;;;;;;6181556;23;20668;-87
2023/05/27 05:48:31;;;;;;;18.55;5.85;;;12.40;99.90;;;;;;6162259;23;20126;-86
2023/05/27 05:51:19;;;;;;;19.38;5.57;;;12.50;99.90;;;;;;6182049;23;20047;-86
2023/05/27 05:54:08;;;;;;;23.95;5.22;;;12.60;99.90;;;;;;6182384;23;20032;-85
2023/05/27 05:56:55;;;;;;;18.85;5.43;;;12.70;99.90;;;;;;6160162;23;20325;-85
2023/05/27 05:59:42;;;;;;;17.30;5.63;;;12.90;99.90;;;;;;6182378;23;20025;-86
2023/05/27 06:02:30;;;;;;;21.20;6.35;;;12.90;99.90;;;;;;6162887;23;20029;-85
2023/05/27 06:05:17;;;;;;;15.65;5.78;;;13.00;99.90;;;;;;6184317;23;20096;-86
2023/05/27 06:08:05;;;;;;;26.92;5.72;;;13.00;99.90;;;;;;6183404;23;20032;-86
2023/05/27 06:10:54;;;;;;;18.75;5.35;;;13.10;99.90;;;;;;6164126;23;20029;-85
2023/05/27 06:13:41;;;;;;;22.88;5.20;;;13.20;99.90;;;;;;6184012;23;20036;-89
2023/05/27 06:16:31;;;;;;;24.60;5.18;;;13.20;99.90;;;;;;6163971;23;20056;-90
2023/05/27 06:19:19;;;;;;;19.45;4.93;;;13.30;99.90;;;;;;6183952;23;20075;-84
2023/05/27 06:22:09;;;;;;;18.60;5.28;;;13.40;99.90;;;;;;6183510;23;20025;-85
2023/05/27 06:24:56;;;;;;;23.40;5.80;;;13.50;99.90;;;;;;6184007;23;20100;-84
2023/05/27 06:27:44;;;;;;;18.40;5.38;;;13.60;99.90;;;;;;6183543;23;20025;-85
2023/05/27 06:30:35;;;;;;;19.33;5.43;;;13.80;99.90;;;;;;6182653;23;20031;-84
2023/05/27 06:33:30;;;;;;;17.45;5.82;;;13.90;99.90;;;;;;6184230;23;20032;-85
2023/05/27 06:36:18;;;;;;;17.45;5.10;;;14.00;99.90;;;;;;6162693;23;20025;-85
2023/05/27 06:39:06;;;;;;;16.17;5.32;;;14.20;99.90;;;;;;6182034;23;20040;-85
2023/05/27 06:41:53;;;;;;;21.02;5.68;;;14.30;99.90;;;;;;6183621;23;20321;-86
2023/05/27 06:44:40;;;;;;;23.10;5.82;;;14.40;99.90;;;;;;6162235;23;20029;-87
2023/05/27 06:47:30;;;;;;;12.93;5.20;;;14.60;99.90;;;;;;6161355;23;20029;-87
2023/05/27 06:50:17;;;;;;;20.13;5.53;;;14.90;99.90;;;;;;6185375;23;20035;-85
2023/05/27 06:53:04;;;;;;;15.95;5.10;;;15.10;99.90;;;;;;6162053;23;20439;-84
2023/05/27 06:55:51;;;;;;;22.38;5.90;;;15.20;99.90;;;;;;6164228;23;20266;-86
2023/05/27 06:58:39;;;;;;;22.42;5.90;;;15.40;99.90;;;;;;6183782;23;20104;-85
2023/05/27 07:01:29;;;;;;;16.50;5.20;;;15.80;99.90;;;;;;6186162;23;20024;-85
2023/05/27 07:04:16;;;;;;;17.98;5.05;;;16.20;99.90;;;;;;6186212;23;20120;-86
2023/05/27 07:07:03;;;;;;;16.50;5.10;;;16.30;99.90;;;;;;6184311;23;20020;-85
2023/05/27 07:09:51;;;;;;;15.23;5.28;;;16.60;99.90;;;;;;6184389;23;20029;-86
2023/05/27 07:12:41;;;;;;;15.10;5.43;;;17.00;99.90;;;;;;6185461;23;20336;-88
2023/05/27 07:15:28;;;;;;;16.83;5.38;;;17.40;99.90;;;;;;6185967;23;20405;-86
2023/05/27 07:18:15;;;;;;;15.82;5.13;;;17.70;76.40;;;;;;6184016;23;20021;-88
2023/05/27 07:21:03;;;;;;;13.98;5.25;;;17.90;60.80;;;;;;6163756;23;20046;-88
2023/05/27 07:23:50;;;;;;;15.32;4.72;;;18.10;47.60;;;;;;6162811;23;20104;-86
2023/05/27 07:26:38;;;;;;;17.65;5.03;;;18.40;43.40;;;;;;6167253;23;20029;-88
2023/05/27 07:29:25;;;;;;;11.40;4.78;;;18.60;31.20;;;;;;6183981;23;20703;-89
2023/05/27 07:32:13;;;;;;;14.02;5.07;;;19.00;26.10;;;;;;6164123;23;20036;-85
2023/05/27 07:35:00;;;;;;;13.05;4.63;;;19.40;29.30;;;;;;6184927;23;20112;-86
2023/05/27 07:37:47;;;;;;;14.02;5.28;;;19.90;26.90;;;;;;6183172;23;20029;-84
2023/05/27 07:40:35;;;;;;;13.73;5.43;;;20.20;24.40;;;;;;6163154;23;20021;-87
2023/05/27 07:43:22;;;;;;;13.05;4.47;;;20.30;9.90;;;;;;6164619;23;20025;-85
2023/05/27 07:46:09;;;;;;;12.73;4.40;;;20.50;8.80;;;;;;6184290;23;20028;-85
2023/05/27 07:48:57;;;;;;;13.70;5.15;;;20.60;3.90;;;;;;6183186;23;20024;-86
2023/05/27 07:51:44;;;;;;;12.43;4.82;;;20.70;2.50;;;;;;6183441;23;20424;-84
2023/05/27 07:54:31;;;;;;;12.05;4.57;;;20.70;1.00;;;;;;6185355;23;20054;-84
2023/05/27 07:57:24;;;;;;;15.15;5.00;;;20.90;1.00;;;;;;6165620;23;20025;-83
2023/05/27 08:00:12;;;;;;;14.98;5.18;;;21.10;1.00;;;;;;6172332;23;20398;-84
2023/05/27 08:03:00;;;;;;;13.15;4.57;;;21.40;1.00;;;;;;6184070;23;20025;-84
2023/05/27 08:05:49;;;;;;;14.40;5.20;;;21.40;1.00;;;;;;6183470;23;20036;-84
2023/05/27 08:08:37;;;;;;;16.65;5.35;;;21.80;1.00;;;;;;6162609;23;20033;-85
2023/05/27 08:11:25;;;;;;;19.17;6.00;;;22.00;1.00;;;;;;6185875;23;20052;-84
2023/05/27 08:14:12;;;;;;;15.30;5.40;;;22.00;1.00;;;;;;6162704;23;20036;-85
2023/05/27 08:17:00;;;;;;;15.25;5.18;;;22.10;1.00;;;;;;6184491;23;20057;-85
2023/05/27 08:19:47;;;;;;;10.45;4.65;;;22.50;1.00;;;;;;6184388;23;20021;-85
2023/05/27 08:22:35;;;;;;;17.88;5.60;;;22.30;1.00;;;;;;6181829;23;20079;-84
2023/05/27 08:25:22;;;;;;;17.70;5.00;;;22.20;1.00;;;;;;6182748;23;20054;-83
2023/05/27 08:28:10;;;;;;;15.60;5.53;;;22.40;1.00;;;;;;6162691;23;20021;-83
2023/05/27 08:30:57;;;;;;;14.48;4.90;;;22.60;1.00;;;;;;6183844;23;20036;-83
2023/05/27 08:33:46;;;;;;;14.88;6.07;;;22.60;1.00;;;;;;6184406;23;20032;-84
2023/05/27 08:36:34;;;;;;;16.58;5.25;;;23.10;1.00;;;;;;6163263;23;20025;-83
2023/05/27 08:39:21;;;;;;;15.50;5.07;;;23.10;1.00;;;;;;6163401;23;20021;-84
2023/05/27 08:42:09;;;;;;;11.23;5.35;;;23.00;1.00;;;;;;6162631;23;20025;-84
2023/05/27 08:44:57;;;;;;;15.30;5.63;;;23.30;1.30;;;;;;6183505;23;20029;-85
2023/05/27 08:47:45;;;;;;;15.57;5.43;;;23.40;1.00;;;;;;6164098;23;20036;-85
2023/05/27 08:50:32;;;;;;;17.58;5.63;;;23.20;32.20;;;;;;6163079;23;20033;-84
2023/05/27 08:53:20;;;;;;;15.43;5.07;;;23.30;67.50;;;;;;6162666;23;20024;-86
2023/05/27 08:56:14;;;;;;;12.50;5.28;;;23.70;55.90;;;;;;6183455;23;20025;-85
2023/05/27 08:59:01;;;;;;;13.38;5.03;;;24.20;77.30;;;;;;6162447;23;20035;-84
2023/05/27 09:01:49;;;;;;;15.18;5.50;;;24.20;46.80;;;;;;6183284;23;20427;-86
2023/05/27 09:04:38;;;;;;;11.38;5.13;;;24.30;81.00;;;;;;6183512;23;20139;-86
2023/05/27 09:07:28;;;;;;;10.70;5.10;;;24.70;23.40;;;;;;6184811;23;20036;-83
2023/05/27 09:10:15;;;;;;;13.43;5.05;;;24.60;42.20;;;;;;6182347;23;20340;-85
2023/05/27 09:13:05;;;;;;;11.90;4.95;;;24.30;57.30;;;;;;6163146;23;20056;-83
2023/05/27 09:16:02;;;;;;;15.43;5.75;;;24.70;38.70;;;;;;6182515;23;20029;-86
2023/05/27 09:18:49;;;;;;;14.85;5.10;;;24.30;39.60;;;;;;6184072;23;20068;-85
2023/05/27 09:21:38;;;;;;;11.98;4.30;;;24.50;29.30;;;;;;6183317;23;20033;-84
2023/05/27 09:24:26;;;;;;;10.93;4.97;;;25.00;60.80;;;;;;6184252;23;20311;-85
2023/05/27 09:27:13;;;;;;;10.70;5.38;;;24.80;99.90;;;;;;6184672;23;20029;-86
2023/05/27 09:30:10;;;;;;;14.13;5.47;;;24.80;79.90;;;;;;6183354;23;20039;-85
2023/05/27 09:33:04;;;;;;;14.18;5.70;;;25.10;99.90;;;;;;6162743;23;20045;-89
2023/05/27 09:35:52;;;;;;;11.73;5.40;;;25.50;99.90;;;;;;6186435;23;20408;-88
2023/05/27 09:39:20;;;;;;;14.40;4.55;;;25.90;91.20;;;;;;6184727;23;20360;-92
2023/05/27 09:42:07;;;;;;;12.52;5.43;;;26.60;99.90;;;;;;6182655;23;20130;-88
2023/05/27 09:44:55;;;;;;;11.73;5.13;;;26.70;99.90;;;;;;6183574;23;20025;-87
2023/05/27 09:47:50;;;;;;;12.32;5.28;;;25.90;99.90;;;;;;6182419;23;20535;-86
2023/05/27 09:50:40;;;;;;;11.63;5.18;;;25.80;99.90;;;;;;6160929;23;20112;-88
2023/05/27 09:53:27;;;;;;;13.88;5.15;;;26.30;99.90;;;;;;6183991;23;20591;-87
2023/05/27 09:56:15;;;;;;;13.38;5.28;;;26.60;99.90;;;;;;6184600;23;20021;-88
2023/05/27 09:59:06;;;;;;;11.98;4.97;;;26.70;75.90;;;;;;6182625;23;20128;-90
2023/05/27 10:01:59;;;;;;;13.45;5.15;;;26.80;1.60;;;;;;6161809;23;20072;-90
2023/05/27 10:04:49;;;;;;;11.80;4.47;;;26.80;1.00;;;;;;6162234;23;20036;-86
2023/05/27 10:07:41;;;;;;;9.77;5.03;;;27.30;1.00;;;;;;6183267;23;20024;-90
2023/05/27 10:10:48;;;;;;;;;;;26.90;2.40;;;;;;6184756;23;20097;-90
2023/05/27 10:13:38;;;;;;;10.25;4.88;;;27.00;1.00;;;;;;6183531;23;19916;-88
2023/05/27 10:16:29;;;;;;;13.20;5.20;;;26.90;1.00;;;;;;6183852;23;20100;-89
2023/05/27 10:19:17;;;;;;;10.70;4.47;;;27.10;8.30;;;;;;6182741;23;20025;-84
2023/05/27 10:22:10;;;;;;;12.32;5.22;;;27.50;10.30;;;;;;6182612;23;20029;-84
2023/05/27 10:25:16;;;;;;;12.85;5.68;;;27.00;6.10;;;;;;6182308;23;20029;-84
2023/05/27 10:28:03;;;;;;;10.43;5.15;;;27.10;8.00;;;;;;6186904;23;20033;-82
2023/05/27 10:30:50;;;;;;;10.80;4.55;;;26.60;1.10;;;;;;6183856;23;20029;-87
2023/05/27 10:33:41;;;;;;;12.90;5.68;;;27.00;1.90;;;;;;6161944;23;20036;-85
2023/05/27 10:36:36;;;;;;;12.57;5.65;;;26.70;1.00;;;;;;6183373;23;20021;-88
2023/05/27 10:39:25;;;;;;;12.43;4.80;;;26.80;1.00;;;;;;6161507;23;20025;-86
2023/05/27 10:42:22;;;;;;;13.00;5.60;;;26.80;1.00;;;;;;6185914;23;20112;-85
2023/05/27 10:49:27;;;;;;;11.57;5.00;;;26.80;1.00;;;;;;6182213;23;20013;-85
2023/05/27 10:56:52;;;;;;;12.95;5.60;;;27.50;1.00;;;;;;6183286;23;20580;-84
2023/05/27 10:59:45;;;;;;;9.25;4.82;;;27.70;11.90;;;;;;6184930;23;20421;-85
2023/05/27 11:06:30;;;;;;;8.95;4.72;;;28.20;9.80;;;;;;6183967;23;20068;-83
2023/05/27 11:13:28;;;;;;;14.50;5.60;;;27.70;5.40;;;;;;6094049;23;20041;-91
2023/05/27 11:16:16;;;;;;;11.63;5.13;;;28.20;2.40;;;;;;6184982;23;20405;-87
2023/05/27 11:19:03;;;;;;;9.30;4.75;;;27.90;6.90;;;;;;6164434;23;20096;-85
2023/05/27 11:21:51;;;;;;;12.52;5.47;;;27.90;5.30;;;;;;6163719;23;20053;-86
2023/05/27 11:24:38;;;;;;;8.50;4.53;;;27.60;1.00;;;;;;6183921;23;20028;-85
2023/05/27 11:27:35;;;;;;;12.23;5.43;;;28.20;9.40;;;;;;6186278;23;20032;-86
2023/05/27 11:30:27;;;;;;;10.80;4.40;;;28.10;99.90;;;;;;6187469;23;20028;-87
2023/05/27 11:33:16;;;;;;;10.27;4.57;;;28.70;99.90;;;;;;6188824;23;20083;-88
2023/05/27 11:36:26;;;;;;;9.52;4.95;;;28.90;55.60;;;;;;6184139;23;20025;-87
2023/05/27 11:39:16;;;;;;;10.63;5.65;;;29.20;28.00;;;;;;6183528;23;20056;-90
2023/05/27 11:42:08;;;;;;;15.25;5.63;;;29.00;40.00;;;;;;6162102;23;20035;-85
2023/05/27 11:44:56;;;;;;;16.48;5.55;;;27.80;58.00;;;;;;6186231;23;20029;-87
2023/05/27 11:47:46;;;;;;;12.68;5.05;;;28.10;20.80;;;;;;6163896;23;20033;-88
2023/05/27 11:50:34;;;;;;;8.40;4.80;;;28.70;21.90;;;;;;6183477;23;20043;-88
2023/05/27 11:53:22;;;;;;;10.70;5.20;;;28.60;35.70;;;;;;6182039;23;20633;-87
2023/05/27 11:56:09;;;;;;;12.27;5.65;;;28.40;37.70;;;;;;6183182;23;20488;-88
2023/05/27 11:58:57;;;;;;;12.18;5.45;;;28.50;32.60;;;;;;6185562;23;20317;-87
2023/05/27 12:01:45;;;;;;;13.32;5.50;;;28.00;33.50;;;;;;6163137;23;20029;-85
2023/05/27 12:04:32;;;;;;;12.02;5.10;;;28.30;37.50;;;;;;6184312;23;20055;-87
2023/05/27 12:07:19;;;;;;;15.50;5.10;;;28.70;39.00;;;;;;6184251;23;20029;-85
2023/05/27 12:10:08;;;;;;;13.93;5.45;;;29.60;25.80;;;;;;6183092;23;20029;-88
2023/05/27 12:13:06;;;;;;;11.80;5.75;;;28.70;99.90;;;;;;6164062;23;20108;-89
2023/05/27 12:15:54;;;;;;;8.95;5.03;;;28.20;99.90;;;;;;6121954;23;20469;-86
2023/05/27 12:18:41;;;;;;;12.15;5.20;;;28.10;72.00;;;;;;6181960;23;20036;-86
2023/05/27 12:21:29;;;;;;;10.55;4.80;;;28.90;99.90;;;;;;6182224;23;20056;-86
2023/05/27 12:24:19;;;;;;;11.13;5.63;;;28.20;99.90;;;;;;6185694;23;20025;-85
2023/05/27 12:27:07;;;;;;;14.18;5.85;;;26.90;99.90;;;;;;6182683;23;20401;-88
2023/05/27 12:29:55;;;;;;;13.75;5.88;;;27.10;99.90;;;;;;6183394;23;20025;-88
2023/05/27 12:32:42;;;;;;;12.32;5.82;;;27.70;99.90;;;;;;6184109;23;20356;-89
2023/05/27 12:35:30;;;;;;;11.75;5.72;;;28.40;99.90;;;;;;6183574;23;20021;-86
2023/05/27 12:38:18;;;;;;;10.80;5.53;;;28.80;99.90;;;;;;6186190;23;20032;-86
2023/05/27 12:41:08;;;;;;;11.23;6.10;;;28.90;99.90;;;;;;6179464;23;20048;-87
2023/05/27 12:43:55;;;;;;;9.05;4.85;;;29.70;99.90;;;;;;6189106;23;20025;-85
2023/05/27 12:46:42;;;;;;;12.55;5.30;;;31.00;99.90;;;;;;6170474;23;20021;-85
2023/05/27 12:49:30;;;;;;;11.10;4.75;;;31.30;99.90;;;;;;6168143;23;20021;-84
2023/05/27 12:52:20;;;;;;;10.15;5.15;;;31.00;99.90;;;;;;6167254;23;20035;-85
2023/05/27 12:55:08;;;;;;;10.18;4.70;;;30.80;99.90;;;;;;6166044;23;20053;-86
2023/05/27 12:57:55;;;;;;;8.75;5.00;;;30.40;79.40;;;;;;6164351;23;20029;-85
2023/05/27 13:00:44;;;;;;;12.30;4.88;;;30.60;99.90;;;;;;6184360;23;20031;-85
2023/05/27 13:03:31;;;;;;;13.43;5.15;;;30.70;99.90;;;;;;6184951;23;20032;-84
2023/05/27 13:06:19;;;;;;;10.35;5.32;;;30.80;99.90;;;;;;6183607;23;20025;-84
2023/05/27 13:09:06;;;;;;;13.18;5.95;;;30.60;99.90;;;;;;6183009;23;20353;-85
2023/05/27 13:11:54;;;;;;;11.07;5.30;;;29.70;99.90;;;;;;6183992;23;20067;-86
2023/05/27 13:14:42;;;;;;;10.13;5.28;;;29.70;99.90;;;;;;6183161;23;20056;-86
2023/05/27 13:17:31;;;;;;;8.95;4.95;;;30.10;99.90;;;;;;6184079;23;20191;-86
2023/05/27 13:20:21;;;;;;;12.63;5.85;;;29.10;99.90;;;;;;6184007;23;20024;-87
2023/05/27 13:23:09;;;;;;;10.93;5.15;;;29.00;91.20;;;;;;6182717;23;20028;-87
2023/05/27 13:25:57;;;;;;;10.75;5.80;;;28.80;94.80;;;;;;6162588;23;20056;-85
2023/05/27 13:28:45;;;;;;;12.77;5.57;;;29.30;99.90;;;;;;6164324;23;20065;-85
2023/05/27 13:31:32;;;;;;;9.18;4.97;;;29.40;22.30;;;;;;6162827;23;20029;-85
2023/05/27 13:34:19;;;;;;;11.98;5.70;;;29.70;91.70;;;;;;6182720;23;20021;-86
2023/05/27 13:37:06;;;;;;;12.90;5.60;;;29.00;96.40;;;;;;6183104;23;20039;-83
2023/05/27 13:39:58;;;;;;;10.52;5.55;;;28.50;85.40;;;;;;6184992;23;20081;-85
2023/05/27 13:42:45;;;;;;;10.82;5.55;;;28.60;94.10;;;;;;6162974;23;20100;-85
2023/05/27 13:45:34;;;;;;;14.80;6.10;;;28.80;94.30;;;;;;6183452;23;20043;-85
2023/05/27 13:48:22;;;;;;;12.85;6.30;;;29.20;96.40;;;;;;6184016;23;20104;-87
2023/05/27 13:51:10;;;;;;;11.43;6.13;;;29.50;99.90;;;;;;6161826;23;20107;-86
2023/05/27 13:54:00;;;;;;;15.90;5.63;;;29.90;99.90;;;;;;6183801;23;20029;-87
2023/05/27 13:56:48;;;;;;;12.38;5.78;;;29.80;99.90;;;;;;6161676;23;20025;-85
2023/05/27 13:59:35;;;;;;;13.23;5.80;;;29.80;94.10;;;;;;6163388;23;20420;-87
2023/05/27 14:02:22;;;;;;;15.75;6.65;;;29.30;99.90;;;;;;6162990;23;20051;-88
2023/05/27 14:05:13;;;;;;;13.30;7.32;;;28.90;99.90;;;;;;6191884;23;20033;-86
2023/05/27 14:08:03;;;;;;;13.23;6.90;;;28.70;38.40;;;;;;6165266;23;20108;-86
2023/05/27 14:10:53;;;;;;;13.32;6.72;;;28.60;66.90;;;;;;6182655;23;20035;-84
2023/05/27 14:13:41;;;;;;;12.38;7.20;;;29.00;32.40;;;;;;6186862;23;20025;-84
2023/05/27 14:16:28;;;;;;;12.60;6.60;;;29.30;99.90;;;;;;6185639;23;20029;-84
2023/05/27 14:19:19;;;;;;;13.50;6.40;;;28.60;99.90;;;;;;6146596;23;20025;-86
2023/05/27 14:22:07;;;;;;;12.98;6.03;;;28.60;99.90;;;;;;6184968;23;20305;-89
2023/05/27 14:24:55;;;;;;;9.23;5.93;;;28.80;99.90;;;;;;6165673;23;20033;-86
2023/05/27 14:27:43;;;;;;;11.93;6.40;;;28.90;99.90;;;;;;6182825;23;20373;-87
2023/05/27 14:30:30;;;;;;;11.70;5.55;;;29.10;99.90;;;;;;6164467;23;20029;-86
2023/05/27 14:33:18;;;;;;;10.40;5.50;;;29.20;99.90;;;;;;6160918;23;20332;-87
2023/05/27 14:36:07;;;;;;;8.13;5.47;;;29.10;99.90;;;;;;6181186;23;20025;-86
2023/05/27 14:38:54;;;;;;;9.93;5.53;;;29.40;99.90;;;;;;6184039;23;20036;-86
2023/05/27 14:41:41;;;;;;;11.63;5.47;;;29.50;99.90;;;;;;6184461;23;20376;-86
2023/05/27 14:44:35;;;;;;;10.45;5.13;;;29.20;99.90;;;;;;6182946;23;20029;-88
2023/05/27 14:47:23;;;;;;;10.70;5.68;;;29.00;99.90;;;;;;6182363;23;20044;-85
2023/05/27 14:50:10;;;;;;;10.98;5.75;;;29.00;99.90;;;;;;6161039;23;20033;-86
2023/05/27 14:52:57;;;;;;;12.55;5.47;;;28.20;99.90;;;;;;6185454;23;20025;-85